EIER weather

Erinagh Airport
Nenagh, County Tipperary, Ireland

Public forecast

Using degrees Celsius for public forecast. Weather courtesy of forecast.io.

Closest aviation weather report (METAR) to Erinagh Airport

Closest report is Shannon Airport, 24.3 nm (45.0 km) WSW. Retrieved 2020/04/08 11:00 UTC (1 minute ago):

EINN 081100Z 13006KT 9999 FEW020 12/07 Q1025 NOSIG

Closest aviation forecast (TAF) to Erinagh Airport

Closest forecast is Shannon Airport, 24.3 nm (45.0 km) WSW. Retrieved 2020/04/08 06:06 UTC (5 hours ago):

TAF COR EINN 080601Z 0806/0906 13008KT 7000 SCT002 BKN040 TEMPO 0806/0809 3000 BR BKN002 PROB30 TEMPO 0806/0808 0200 FG BKN001 BECMG 0810/0812 VRB03KT BECMG 0816/0818 34010KT BECMG 0820/0822 24005KT BECMG 0822/0824 VRB03KT TEMPO 0823/0906 3000 BR SCT005 PROB40 TEMPO 0900/0906 0500 FG BKN002